sensor_id;sensor_type;location;lat;lon;timestamp;pressure;altitude;pressure_sealevel;temperature;humidity
80682;BME280;70045;40.200;44.582;2023-11-21T00:00:35;85147.41;;;4.89;62.74
80682;BME280;70045;40.200;44.582;2023-11-21T00:03:00;85148.19;;;4.86;62.33
80682;BME280;70045;40.200;44.582;2023-11-21T00:05:26;85147.88;;;4.84;62.47
80682;BME280;70045;40.200;44.582;2023-11-21T00:07:51;85153.13;;;4.77;62.86
80682;BME280;70045;40.200;44.582;2023-11-21T00:10:17;85160.25;;;4.69;62.88
80682;BME280;70045;40.200;44.582;2023-11-21T00:12:45;85162.53;;;4.63;63.36
80682;BME280;70045;40.200;44.582;2023-11-21T00:15:10;85174.84;;;4.52;62.65
80682;BME280;70045;40.200;44.582;2023-11-21T00:17:36;85176.78;;;4.44;63.38
80682;BME280;70045;40.200;44.582;2023-11-21T00:20:02;85178.50;;;4.51;63.59
80682;BME280;70045;40.200;44.582;2023-11-21T00:22:27;85178.06;;;4.56;63.74
80682;BME280;70045;40.200;44.582;2023-11-21T00:24:56;85181.28;;;4.40;63.20
80682;BME280;70045;40.200;44.582;2023-11-21T00:27:21;85193.25;;;4.47;64.23
80682;BME280;70045;40.200;44.582;2023-11-21T00:29:46;85197.28;;;4.48;63.65
80682;BME280;70045;40.200;44.582;2023-11-21T00:32:12;85199.44;;;4.49;63.89
80682;BME280;70045;40.200;44.582;2023-11-21T00:34:37;85199.50;;;4.46;64.03
80682;BME280;70045;40.200;44.582;2023-11-21T00:37:05;85200.97;;;4.47;64.36
80682;BME280;70045;40.200;44.582;2023-11-21T00:39:31;85202.06;;;4.46;64.32
80682;BME280;70045;40.200;44.582;2023-11-21T00:41:56;85212.78;;;4.41;65.16
80682;BME280;70045;40.200;44.582;2023-11-21T00:44:21;85213.69;;;4.30;64.47
80682;BME280;70045;40.200;44.582;2023-11-21T00:46:47;85213.28;;;4.32;65.10
80682;BME280;70045;40.200;44.582;2023-11-21T00:49:15;85215.41;;;4.37;65.77
80682;BME280;70045;40.200;44.582;2023-11-21T00:51:40;85220.25;;;4.31;65.24
80682;BME280;70045;40.200;44.582;2023-11-21T00:54:06;85226.56;;;4.27;65.44
80682;BME280;70045;40.200;44.582;2023-11-21T00:56:31;85222.72;;;4.15;66.41
80682;BME280;70045;40.200;44.582;2023-11-21T00:58:57;85232.94;;;4.19;66.54
80682;BME280;70045;40.200;44.582;2023-11-21T01:01:25;85238.00;;;4.22;66.93
80682;BME280;70045;40.200;44.582;2023-11-21T01:03:50;85238.78;;;4.19;67.03
80682;BME280;70045;40.200;44.582;2023-11-21T01:06:16;85249.84;;;4.40;66.59
80682;BME280;70045;40.200;44.582;2023-11-21T01:08:43;85259.94;;;4.50;66.61
80682;BME280;70045;40.200;44.582;2023-11-21T01:11:08;85241.44;;;4.36;65.93
80682;BME280;70045;40.200;44.582;2023-11-21T01:13:37;85243.25;;;4.15;66.62
80682;BME280;70045;40.200;44.582;2023-11-21T01:16:02;85268.91;;;4.15;66.96
80682;BME280;70045;40.200;44.582;2023-11-21T01:18:28;85271.97;;;4.06;67.51
80682;BME280;70045;40.200;44.582;2023-11-21T01:20:53;85280.75;;;4.05;67.02
80682;BME280;70045;40.200;44.582;2023-11-21T01:23:19;85276.44;;;3.99;67.66
80682;BME280;70045;40.200;44.582;2023-11-21T01:25:47;85268.19;;;3.87;67.33
80682;BME280;70045;40.200;44.582;2023-11-21T01:28:12;85254.63;;;3.60;69.01
80682;BME280;70045;40.200;44.582;2023-11-21T01:30:38;85258.16;;;3.42;67.55
80682;BME280;70045;40.200;44.582;2023-11-21T01:33:03;85258.38;;;3.51;67.46
80682;BME280;70045;40.200;44.582;2023-11-21T01:35:29;85251.81;;;3.50;68.00
80682;BME280;70045;40.200;44.582;2023-11-21T01:37:57;85261.63;;;3.55;68.43
80682;BME280;70045;40.200;44.582;2023-11-21T01:40:22;85268.03;;;3.71;67.32
80682;BME280;70045;40.200;44.582;2023-11-21T01:42:48;85271.28;;;3.75;67.18
80682;BME280;70045;40.200;44.582;2023-11-21T01:45:14;85266.88;;;3.75;66.75
80682;BME280;70045;40.200;44.582;2023-11-21T01:47:40;85263.88;;;3.81;67.20
80682;BME280;70045;40.200;44.582;2023-11-21T01:50:13;85261.06;;;3.99;66.78
80682;BME280;70045;40.200;44.582;2023-11-21T01:52:39;85263.56;;;4.02;66.05
80682;BME280;70045;40.200;44.582;2023-11-21T01:55:06;85269.28;;;4.13;64.46
80682;BME280;70045;40.200;44.582;2023-11-21T01:57:32;85273.22;;;4.18;64.73
80682;BME280;70045;40.200;44.582;2023-11-21T01:59:58;85271.69;;;4.24;64.74
80682;BME280;70045;40.200;44.582;2023-11-21T02:02:29;85283.81;;;4.47;63.88
80682;BME280;70045;40.200;44.582;2023-11-21T02:04:55;85285.38;;;4.65;63.17
80682;BME280;70045;40.200;44.582;2023-11-21T02:07:20;85279.72;;;4.74;62.46
80682;BME280;70045;40.200;44.582;2023-11-21T02:09:46;85286.84;;;4.86;61.58
80682;BME280;70045;40.200;44.582;2023-11-21T02:12:11;85287.41;;;4.97;62.05
80682;BME280;70045;40.200;44.582;2023-11-21T02:14:39;85295.53;;;5.16;61.17
80682;BME280;70045;40.200;44.582;2023-11-21T02:17:04;85287.69;;;5.23;61.14
80682;BME280;70045;40.200;44.582;2023-11-21T02:19:30;85290.94;;;5.27;60.40
80682;BME280;70045;40.200;44.582;2023-11-21T02:21:59;85303.00;;;5.30;60.26
80682;BME280;70045;40.200;44.582;2023-11-21T02:24:25;85291.25;;;5.29;59.48
80682;BME280;70045;40.200;44.582;2023-11-21T02:26:53;85300.34;;;5.34;59.93
80682;BME280;70045;40.200;44.582;2023-11-21T02:29:20;85305.81;;;5.36;59.61
80682;BME280;70045;40.200;44.582;2023-11-21T02:31:46;85304.31;;;5.38;59.78
80682;BME280;70045;40.200;44.582;2023-11-21T02:34:12;85289.81;;;5.28;60.35
80682;BME280;70045;40.200;44.582;2023-11-21T02:36:37;85314.47;;;5.45;59.35
80682;BME280;70045;40.200;44.582;2023-11-21T02:39:05;85320.72;;;5.44;59.86
80682;BME280;70045;40.200;44.582;2023-11-21T02:41:31;85318.81;;;5.49;59.71
80682;BME280;70045;40.200;44.582;2023-11-21T02:43:56;85321.66;;;5.54;58.53
80682;BME280;70045;40.200;44.582;2023-11-21T02:46:21;85321.13;;;5.63;58.86
80682;BME280;70045;40.200;44.582;2023-11-21T02:48:47;85322.03;;;5.73;59.70
80682;BME280;70045;40.200;44.582;2023-11-21T02:51:15;85314.25;;;5.76;58.64
80682;BME280;70045;40.200;44.582;2023-11-21T02:53:40;85324.13;;;5.78;56.82
80682;BME280;70045;40.200;44.582;2023-11-21T02:56:06;85326.16;;;5.87;59.02
80682;BME280;70045;40.200;44.582;2023-11-21T02:58:31;85318.69;;;5.96;58.15
80682;BME280;70045;40.200;44.582;2023-11-21T03:00:56;85327.69;;;6.04;56.29
80682;BME280;70045;40.200;44.582;2023-11-21T03:03:24;85331.41;;;6.03;56.10
80682;BME280;70045;40.200;44.582;2023-11-21T03:05:50;85327.38;;;6.02;57.70
80682;BME280;70045;40.200;44.582;2023-11-21T03:08:15;85327.19;;;6.13;57.34
80682;BME280;70045;40.200;44.582;2023-11-21T03:10:41;85333.84;;;6.10;57.33
80682;BME280;70045;40.200;44.582;2023-11-21T03:13:06;85319.25;;;6.03;56.06
80682;BME280;70045;40.200;44.582;2023-11-21T03:15:34;85335.41;;;6.04;57.08
80682;BME280;70045;40.200;44.582;2023-11-21T03:17:59;85344.75;;;5.98;57.50
80682;BME280;70045;40.200;44.582;2023-11-21T03:20:25;85348.06;;;5.95;57.00
80682;BME280;70045;40.200;44.582;2023-11-21T03:22:50;85343.72;;;5.92;58.52
80682;BME280;70045;40.200;44.582;2023-11-21T03:25:16;85350.13;;;5.83;57.96
80682;BME280;70045;40.200;44.582;2023-11-21T03:27:44;85352.63;;;5.67;58.49
80682;BME280;70045;40.200;44.582;2023-11-21T03:30:10;85354.69;;;5.56;59.16
80682;BME280;70045;40.200;44.582;2023-11-21T03:32:35;85355.13;;;5.51;59.88
80682;BME280;70045;40.200;44.582;2023-11-21T03:35:01;85350.44;;;5.45;59.36
80682;BME280;70045;40.200;44.582;2023-11-21T03:37:26;85357.78;;;5.47;59.91
80682;BME280;70045;40.200;44.582;2023-11-21T03:39:55;85364.03;;;5.46;60.00
80682;BME280;70045;40.200;44.582;2023-11-21T03:42:20;85354.81;;;5.49;60.39
80682;BME280;70045;40.200;44.582;2023-11-21T03:44:46;85372.44;;;5.46;59.96
80682;BME280;70045;40.200;44.582;2023-11-21T03:47:11;85378.44;;;5.40;60.04
80682;BME280;70045;40.200;44.582;2023-11-21T03:49:37;85383.63;;;5.36;60.03
80682;BME280;70045;40.200;44.582;2023-11-21T03:52:05;85394.59;;;5.40;60.20
80682;BME280;70045;40.200;44.582;2023-11-21T03:54:31;85404.50;;;5.42;60.84
80682;BME280;70045;40.200;44.582;2023-11-21T03:56:56;85398.97;;;5.43;60.13
80682;BME280;70045;40.200;44.582;2023-11-21T03:59:22;85406.69;;;5.43;61.06
80682;BME280;70045;40.200;44.582;2023-11-21T04:01:47;85409.19;;;5.47;61.51
80682;BME280;70045;40.200;44.582;2023-11-21T04:04:15;85417.22;;;5.49;61.04
80682;BME280;70045;40.200;44.582;2023-11-21T04:06:41;85424.66;;;5.43;60.40
80682;BME280;70045;40.200;44.582;2023-11-21T04:09:06;85430.72;;;5.33;60.54
80682;BME280;70045;40.200;44.582;2023-11-21T04:11:32;85428.59;;;5.28;61.35
80682;BME280;70045;40.200;44.582;2023-11-21T04:13:57;85425.22;;;5.31;60.96
80682;BME280;70045;40.200;44.582;2023-11-21T04:16:26;85429.75;;;5.23;60.80
80682;BME280;70045;40.200;44.582;2023-11-21T04:18:51;85433.94;;;5.14;60.84
80682;BME280;70045;40.200;44.582;2023-11-21T04:21:17;85435.16;;;5.05;61.24
80682;BME280;70045;40.200;44.582;2023-11-21T04:23:42;85437.03;;;5.01;61.52
80682;BME280;70045;40.200;44.582;2023-11-21T04:26:08;85442.88;;;5.05;61.80
80682;BME280;70045;40.200;44.582;2023-11-21T04:28:36;85439.50;;;5.08;61.78
80682;BME280;70045;40.200;44.582;2023-11-21T04:31:01;85442.19;;;5.01;61.75
80682;BME280;70045;40.200;44.582;2023-11-21T04:33:26;85441.28;;;4.88;62.19
80682;BME280;70045;40.200;44.582;2023-11-21T04:35:52;85448.41;;;4.77;62.26
80682;BME280;70045;40.200;44.582;2023-11-21T04:38:17;85442.50;;;4.80;62.19
80682;BME280;70045;40.200;44.582;2023-11-21T04:40:45;85442.97;;;4.71;62.14
80682;BME280;70045;40.200;44.582;2023-11-21T04:43:11;85443.81;;;4.64;62.59
80682;BME280;70045;40.200;44.582;2023-11-21T04:45:36;85450.03;;;4.63;63.00
80682;BME280;70045;40.200;44.582;2023-11-21T04:48:02;85444.25;;;4.59;62.20
80682;BME280;70045;40.200;44.582;2023-11-21T04:50:28;85448.59;;;4.62;62.18
80682;BME280;70045;40.200;44.582;2023-11-21T04:52:56;85455.50;;;4.69;62.07
80682;BME280;70045;40.200;44.582;2023-11-21T04:55:21;85455.69;;;4.82;62.86
80682;BME280;70045;40.200;44.582;2023-11-21T04:57:46;85460.38;;;4.87;61.54
80682;BME280;70045;40.200;44.582;2023-11-21T05:00:12;85455.47;;;4.96;61.44
80682;BME280;70045;40.200;44.582;2023-11-21T05:02:38;85459.13;;;4.99;60.58
80682;BME280;70045;40.200;44.582;2023-11-21T05:05:07;85469.94;;;5.10;60.29
80682;BME280;70045;40.200;44.582;2023-11-21T05:07:33;85469.91;;;5.14;59.54
80682;BME280;70045;40.200;44.582;2023-11-21T05:09:58;85470.34;;;5.08;59.77
80682;BME280;70045;40.200;44.582;2023-11-21T05:12:24;85473.94;;;5.15;59.49
80682;BME280;70045;40.200;44.582;2023-11-21T05:14:50;85480.09;;;5.21;58.72
80682;BME280;70045;40.200;44.582;2023-11-21T05:17:19;85480.75;;;5.25;58.09
80682;BME280;70045;40.200;44.582;2023-11-21T05:19:44;85487.91;;;5.37;58.72
80682;BME280;70045;40.200;44.582;2023-11-21T05:22:09;85493.78;;;5.38;58.30
80682;BME280;70045;40.200;44.582;2023-11-21T05:24:35;85495.50;;;5.44;58.20
80682;BME280;70045;40.200;44.582;2023-11-21T05:27:00;85497.19;;;5.55;58.08
80682;BME280;70045;40.200;44.582;2023-11-21T05:29:28;85491.16;;;5.65;57.49
80682;BME280;70045;40.200;44.582;2023-11-21T05:31:54;85498.25;;;5.81;56.30
80682;BME280;70045;40.200;44.582;2023-11-21T05:34:19;85492.97;;;5.88;56.43
80682;BME280;70045;40.200;44.582;2023-11-21T05:36:44;85502.06;;;5.96;55.94
80682;BME280;70045;40.200;44.582;2023-11-21T05:39:10;85501.59;;;6.01;55.33
80682;BME280;70045;40.200;44.582;2023-11-21T05:41:38;85500.50;;;6.02;55.43
80682;BME280;70045;40.200;44.582;2023-11-21T05:44:04;85505.72;;;6.19;55.62
80682;BME280;70045;40.200;44.582;2023-11-21T05:46:29;85509.94;;;6.29;54.35
80682;BME280;70045;40.200;44.582;2023-11-21T05:48:55;85514.13;;;6.43;53.64
80682;BME280;70045;40.200;44.582;2023-11-21T05:51:20;85509.47;;;6.54;53.04
80682;BME280;70045;40.200;44.582;2023-11-21T05:53:48;85519.53;;;6.69;54.31
80682;BME280;70045;40.200;44.582;2023-11-21T05:56:14;85516.94;;;6.69;53.77
80682;BME280;70045;40.200;44.582;2023-11-21T05:58:39;85513.50;;;6.75;54.12
80682;BME280;70045;40.200;44.582;2023-11-21T06:01:06;85518.19;;;6.81;53.36
80682;BME280;70045;40.200;44.582;2023-11-21T06:03:31;85530.06;;;6.94;53.04
80682;BME280;70045;40.200;44.582;2023-11-21T06:05:59;85528.72;;;7.06;52.72
80682;BME280;70045;40.200;44.582;2023-11-21T06:08:24;85536.25;;;7.17;52.11
80682;BME280;70045;40.200;44.582;2023-11-21T06:10:50;85522.88;;;7.22;51.92
80682;BME280;70045;40.200;44.582;2023-11-21T06:13:15;85532.22;;;7.32;51.36
80682;BME280;70045;40.200;44.582;2023-11-21T06:15:41;85539.16;;;7.35;51.17
80682;BME280;70045;40.200;44.582;2023-11-21T06:18:09;85543.38;;;7.46;50.92
80682;BME280;70045;40.200;44.582;2023-11-21T06:20:35;85542.41;;;7.40;50.35
80682;BME280;70045;40.200;44.582;2023-11-21T06:23:00;85542.41;;;7.40;50.69
80682;BME280;70045;40.200;44.582;2023-11-21T06:25:26;85545.63;;;7.44;51.45
80682;BME280;70045;40.200;44.582;2023-11-21T06:27:51;85549.66;;;7.45;50.31
80682;BME280;70045;40.200;44.582;2023-11-21T06:30:19;85560.53;;;7.52;49.38
80682;BME280;70045;40.200;44.582;2023-11-21T06:32:45;85555.94;;;7.60;49.69
80682;BME280;70045;40.200;44.582;2023-11-21T06:35:10;85555.06;;;7.67;48.56
80682;BME280;70045;40.200;44.582;2023-11-21T06:37:36;85566.28;;;7.77;49.95
80682;BME280;70045;40.200;44.582;2023-11-21T06:40:02;85558.63;;;7.89;50.26
80682;BME280;70045;40.200;44.582;2023-11-21T06:42:30;85570.00;;;7.92;50.19
80682;BME280;70045;40.200;44.582;2023-11-21T06:44:56;85570.97;;;7.82;49.21
80682;BME280;70045;40.200;44.582;2023-11-21T06:47:22;85581.28;;;7.82;49.77
80682;BME280;70045;40.200;44.582;2023-11-21T06:49:48;85586.03;;;7.67;49.52
80682;BME280;70045;40.200;44.582;2023-11-21T06:52:14;85586.97;;;7.57;48.55
80682;BME280;70045;40.200;44.582;2023-11-21T06:54:42;85598.38;;;7.59;49.20
80682;BME280;70045;40.200;44.582;2023-11-21T06:57:07;85594.41;;;7.54;48.92
80682;BME280;70045;40.200;44.582;2023-11-21T06:59:33;85598.13;;;7.53;50.02
80682;BME280;70045;40.200;44.582;2023-11-21T07:01:59;85586.91;;;7.60;49.99
80682;BME280;70045;40.200;44.582;2023-11-21T07:04:24;85596.44;;;7.63;49.16
80682;BME280;70045;40.200;44.582;2023-11-21T07:06:56;85594.31;;;7.58;50.46
80682;BME280;70045;40.200;44.582;2023-11-21T07:09:21;85592.06;;;7.60;50.75
80682;BME280;70045;40.200;44.582;2023-11-21T07:11:47;85601.09;;;7.52;50.43
80682;BME280;70045;40.200;44.582;2023-11-21T07:14:13;85602.13;;;7.38;50.09
80682;BME280;70045;40.200;44.582;2023-11-21T07:16:38;85597.44;;;7.33;51.30
80682;BME280;70045;40.200;44.582;2023-11-21T07:19:08;85606.19;;;7.35;50.27
80682;BME280;70045;40.200;44.582;2023-11-21T07:21:36;85592.00;;;7.27;52.21
80682;BME280;70045;40.200;44.582;2023-11-21T07:24:03;85607.66;;;7.37;51.31
80682;BME280;70045;40.200;44.582;2023-11-21T07:26:29;85614.19;;;7.41;51.04
80682;BME280;70045;40.200;44.582;2023-11-21T07:28:55;85616.72;;;7.45;50.74
80682;BME280;70045;40.200;44.582;2023-11-21T07:31:24;85624.69;;;7.50;50.86
80682;BME280;70045;40.200;44.582;2023-11-21T07:33:49;85625.25;;;7.42;50.63
80682;BME280;70045;40.200;44.582;2023-11-21T07:36:15;85629.63;;;7.45;49.89
80682;BME280;70045;40.200;44.582;2023-11-21T07:38:42;85622.19;;;7.47;50.24
80682;BME280;70045;40.200;44.582;2023-11-21T07:41:08;85628.28;;;7.73;51.00
80682;BME280;70045;40.200;44.582;2023-11-21T07:43:38;85619.13;;;7.88;48.63
80682;BME280;70045;40.200;44.582;2023-11-21T07:46:04;85626.47;;;8.06;49.16
80682;BME280;70045;40.200;44.582;2023-11-21T07:48:34;85631.97;;;8.25;47.39
80682;BME280;70045;40.200;44.582;2023-11-21T07:51:00;85630.81;;;8.26;45.89
80682;BME280;70045;40.200;44.582;2023-11-21T07:53:26;85640.41;;;8.42;46.84
80682;BME280;70045;40.200;44.582;2023-11-21T07:55:54;85643.25;;;8.64;46.01
80682;BME280;70045;40.200;44.582;2023-11-21T07:58:20;85641.91;;;9.05;45.58
80682;BME280;70045;40.200;44.582;2023-11-21T08:00:46;85635.09;;;9.53;43.83
80682;BME280;70045;40.200;44.582;2023-11-21T08:03:13;85603.34;;;10.78;41.76
80682;BME280;70045;40.200;44.582;2023-11-21T08:05:38;85627.28;;;12.14;40.56
80682;BME280;70045;40.200;44.582;2023-11-21T08:08:07;85627.53;;;12.38;39.71
80682;BME280;70045;40.200;44.582;2023-11-21T08:10:32;85631.19;;;11.87;38.39
80682;BME280;70045;40.200;44.582;2023-11-21T08:12:58;85628.94;;;12.80;39.57
80682;BME280;70045;40.200;44.582;2023-11-21T08:15:23;85635.91;;;13.11;36.66
80682;BME280;70045;40.200;44.582;2023-11-21T08:17:49;85642.44;;;13.80;36.06
80682;BME280;70045;40.200;44.582;2023-11-21T08:20:17;85644.59;;;13.91;35.41
80682;BME280;70045;40.200;44.582;2023-11-21T08:22:44;85644.38;;;14.65;34.40
80682;BME280;70045;40.200;44.582;2023-11-21T08:25:09;85635.81;;;15.22;33.40
80682;BME280;70045;40.200;44.582;2023-11-21T08:27:34;85633.94;;;16.00;32.23
80682;BME280;70045;40.200;44.582;2023-11-21T08:30:02;85650.16;;;15.27;32.23
80682;BME280;70045;40.200;44.582;2023-11-21T08:32:30;85656.34;;;14.38;31.88
80682;BME280;70045;40.200;44.582;2023-11-21T08:34:55;85650.78;;;14.64;33.10
80682;BME280;70045;40.200;44.582;2023-11-21T08:37:21;85644.97;;;14.60;33.89
80682;BME280;70045;40.200;44.582;2023-11-21T08:39:47;85649.59;;;14.22;33.37
80682;BME280;70045;40.200;44.582;2023-11-21T08:42:13;85657.03;;;13.78;34.80
80682;BME280;70045;40.200;44.582;2023-11-21T08:44:41;85662.84;;;13.35;35.69
80682;BME280;70045;40.200;44.582;2023-11-21T08:47:07;85658.78;;;13.34;34.76
80682;BME280;70045;40.200;44.582;2023-11-21T08:49:32;85658.34;;;13.36;35.50
80682;BME280;70045;40.200;44.582;2023-11-21T08:51:58;85654.00;;;13.61;34.70
80682;BME280;70045;40.200;44.582;2023-11-21T08:54:23;85640.22;;;13.05;33.09
80682;BME280;70045;40.200;44.582;2023-11-21T08:56:53;85659.41;;;12.30;35.37
80682;BME280;70045;40.200;44.582;2023-11-21T08:59:19;85670.19;;;11.53;34.06
80682;BME280;70045;40.200;44.582;2023-11-21T09:01:44;85661.28;;;11.76;33.60
80682;BME280;70045;40.200;44.582;2023-11-21T09:04:10;85668.13;;;12.45;32.73
80682;BME280;70045;40.200;44.582;2023-11-21T09:06:35;85660.25;;;12.67;32.09
80682;BME280;70045;40.200;44.582;2023-11-21T09:09:03;85662.66;;;12.43;31.36
80682;BME280;70045;40.200;44.582;2023-11-21T09:11:28;85658.59;;;12.11;32.12
80682;BME280;70045;40.200;44.582;2023-11-21T09:13:54;85659.34;;;11.67;32.95
80682;BME280;70045;40.200;44.582;2023-11-21T09:16:19;85656.28;;;12.13;33.03
80682;BME280;70045;40.200;44.582;2023-11-21T09:18:45;85658.06;;;11.94;33.07
80682;BME280;70045;40.200;44.582;2023-11-21T09:21:13;85674.41;;;12.26;31.25
80682;BME280;70045;40.200;44.582;2023-11-21T09:23:38;85670.69;;;12.36;31.20
80682;BME280;70045;40.200;44.582;2023-11-21T09:26:04;85663.59;;;12.86;31.47
80682;BME280;70045;40.200;44.582;2023-11-21T09:28:29;85669.84;;;12.89;29.93
80682;BME280;70045;40.200;44.582;2023-11-21T09:30:55;85672.78;;;12.19;31.57
80682;BME280;70045;40.200;44.582;2023-11-21T09:33:23;85672.97;;;11.80;32.67
80682;BME280;70045;40.200;44.582;2023-11-21T09:35:48;85667.94;;;11.55;32.85
80682;BME280;70045;40.200;44.582;2023-11-21T09:38:14;85671.81;;;11.15;31.28
80682;BME280;70045;40.200;44.582;2023-11-21T09:40:39;85667.88;;;11.10;32.77
80682;BME280;70045;40.200;44.582;2023-11-21T09:43:16;85674.56;;;10.86;33.46
80682;BME280;70045;40.200;44.582;2023-11-21T09:45:47;85675.66;;;10.50;33.04
80682;BME280;70045;40.200;44.582;2023-11-21T09:48:14;85690.66;;;10.29;34.04
80682;BME280;70045;40.200;44.582;2023-11-21T09:50:42;85693.06;;;10.11;34.06
80682;BME280;70045;40.200;44.582;2023-11-21T09:53:20;85675.41;;;9.80;34.60
80682;BME280;70045;40.200;44.582;2023-11-21T09:55:52;85700.56;;;9.79;34.05
80682;BME280;70045;40.200;44.582;2023-11-21T09:58:17;85684.94;;;9.83;35.03
80682;BME280;70045;40.200;44.582;2023-11-21T10:00:45;85703.47;;;9.94;35.01
80682;BME280;70045;40.200;44.582;2023-11-21T10:03:11;85677.06;;;9.74;33.77
80682;BME280;70045;40.200;44.582;2023-11-21T10:05:37;85678.13;;;10.02;34.50
80682;BME280;70045;40.200;44.582;2023-11-21T10:08:10;85688.63;;;10.24;34.10
80682;BME280;70045;40.200;44.582;2023-11-21T10:10:37;85684.16;;;10.25;34.79
80682;BME280;70045;40.200;44.582;2023-11-21T10:13:04;85681.88;;;10.14;34.57
80682;BME280;70045;40.200;44.582;2023-11-21T10:15:30;85688.03;;;9.91;34.69
80682;BME280;70045;40.200;44.582;2023-11-21T10:17:56;85686.69;;;9.44;35.20
80682;BME280;70045;40.200;44.582;2023-11-21T10:20:24;85698.09;;;9.47;35.17
80682;BME280;70045;40.200;44.582;2023-11-21T10:22:50;85682.38;;;9.41;34.87
80682;BME280;70045;40.200;44.582;2023-11-21T10:25:16;85711.22;;;9.69;35.11
80682;BME280;70045;40.200;44.582;2023-11-21T10:27:42;85716.28;;;9.72;34.76
80682;BME280;70045;40.200;44.582;2023-11-21T10:30:08;85709.56;;;9.75;34.17
80682;BME280;70045;40.200;44.582;2023-11-21T10:32:36;85707.84;;;9.55;33.73
80682;BME280;70045;40.200;44.582;2023-11-21T10:35:02;85713.84;;;9.23;34.39
80682;BME280;70045;40.200;44.582;2023-11-21T10:37:27;85720.38;;;9.28;34.36
80682;BME280;70045;40.200;44.582;2023-11-21T10:39:57;85720.56;;;9.20;34.42
80682;BME280;70045;40.200;44.582;2023-11-21T10:42:22;85717.09;;;9.27;34.87
80682;BME280;70045;40.200;44.582;2023-11-21T10:44:51;85732.91;;;9.29;33.64
80682;BME280;70045;40.200;44.582;2023-11-21T10:47:20;85731.91;;;8.94;35.07
80682;BME280;70045;40.200;44.582;2023-11-21T10:49:48;85728.84;;;8.82;35.26
80682;BME280;70045;40.200;44.582;2023-11-21T10:52:14;85727.88;;;8.93;34.63
80682;BME280;70045;40.200;44.582;2023-11-21T10:54:39;85724.31;;;9.03;35.75
80682;BME280;70045;40.200;44.582;2023-11-21T10:57:07;85723.25;;;9.00;36.59
80682;BME280;70045;40.200;44.582;2023-11-21T10:59:33;85723.28;;;9.30;36.42
80682;BME280;70045;40.200;44.582;2023-11-21T11:01:58;85739.81;;;9.49;35.74
80682;BME280;70045;40.200;44.582;2023-11-21T11:04:27;85740.72;;;9.42;35.10
80682;BME280;70045;40.200;44.582;2023-11-21T11:06:57;85743.28;;;9.13;35.51
80682;BME280;70045;40.200;44.582;2023-11-21T11:09:30;85745.16;;;8.96;35.69
80682;BME280;70045;40.200;44.582;2023-11-21T11:11:56;85755.72;;;8.85;35.73
80682;BME280;70045;40.200;44.582;2023-11-21T11:14:22;85754.38;;;8.80;36.06
80682;BME280;70045;40.200;44.582;2023-11-21T11:16:49;85761.16;;;9.07;36.32
80682;BME280;70045;40.200;44.582;2023-11-21T11:19:14;85757.09;;;9.22;36.63
80682;BME280;70045;40.200;44.582;2023-11-21T11:26:56;85773.59;;;8.79;35.47
80682;BME280;70045;40.200;44.582;2023-11-21T11:35:04;85800.13;;;8.27;35.82
80682;BME280;70045;40.200;44.582;2023-11-21T11:37:32;85794.44;;;8.16;35.24
80682;BME280;70045;40.200;44.582;2023-11-21T11:39:59;85816.00;;;8.09;35.76
80682;BME280;70045;40.200;44.582;2023-11-21T11:42:32;85830.94;;;8.18;35.73
80682;BME280;70045;40.200;44.582;2023-11-21T11:44:57;85843.50;;;8.16;36.37
80682;BME280;70045;40.200;44.582;2023-11-21T11:47:26;85838.34;;;8.16;35.40
80682;BME280;70045;40.200;44.582;2023-11-21T11:50:00;85841.25;;;7.98;34.68
80682;BME280;70045;40.200;44.582;2023-11-21T11:52:43;85838.41;;;8.12;34.90
80682;BME280;70045;40.200;44.582;2023-11-21T11:55:11;85844.44;;;8.25;35.70
80682;BME280;70045;40.200;44.582;2023-11-21T11:57:38;85840.31;;;8.48;34.95
80682;BME280;70045;40.200;44.582;2023-11-21T12:02:34;85860.28;;;8.47;34.99
80682;BME280;70045;40.200;44.582;2023-11-21T12:04:59;85848.00;;;8.52;35.64
80682;BME280;70045;40.200;44.582;2023-11-21T12:07:24;85862.03;;;8.30;35.12
80682;BME280;70045;40.200;44.582;2023-11-21T12:10:04;85870.19;;;8.29;35.03
80682;BME280;70045;40.200;44.582;2023-11-21T12:12:30;85874.63;;;8.28;36.03
80682;BME280;70045;40.200;44.582;2023-11-21T12:14:58;85879.72;;;8.32;35.13
80682;BME280;70045;40.200;44.582;2023-11-21T12:17:24;85884.88;;;8.32;35.62
80682;BME280;70045;40.200;44.582;2023-11-21T12:19:49;85883.16;;;8.25;35.31
80682;BME280;70045;40.200;44.582;2023-11-21T12:22:15;85880.59;;;8.25;35.47
80682;BME280;70045;40.200;44.582;2023-11-21T12:24:40;85890.31;;;8.18;34.92
80682;BME280;70045;40.200;44.582;2023-11-21T12:27:08;85891.91;;;8.11;35.01
80682;BME280;70045;40.200;44.582;2023-11-21T12:29:34;85889.41;;;7.84;35.44
80682;BME280;70045;40.200;44.582;2023-11-21T12:31:59;85892.84;;;7.78;35.30
80682;BME280;70045;40.200;44.582;2023-11-21T12:34:25;85877.78;;;7.52;36.49
80682;BME280;70045;40.200;44.582;2023-11-21T12:36:50;85882.63;;;7.50;36.14
80682;BME280;70045;40.200;44.582;2023-11-21T12:39:19;85895.94;;;7.69;36.60
80682;BME280;70045;40.200;44.582;2023-11-21T12:41:45;85893.19;;;7.80;36.12
80682;BME280;70045;40.200;44.582;2023-11-21T12:44:12;85895.44;;;7.78;35.64
80682;BME280;70045;40.200;44.582;2023-11-21T12:46:41;85901.84;;;7.69;36.31
80682;BME280;70045;40.200;44.582;2023-11-21T12:49:07;85911.66;;;7.78;36.43
80682;BME280;70045;40.200;44.582;2023-11-21T12:51:35;85912.38;;;7.79;36.29
80682;BME280;70045;40.200;44.582;2023-11-21T12:54:01;85923.78;;;7.58;35.76
80682;BME280;70045;40.200;44.582;2023-11-21T12:56:27;85936.16;;;7.43;36.70
80682;BME280;70045;40.200;44.582;2023-11-21T12:58:54;85932.38;;;7.24;37.44
80682;BME280;70045;40.200;44.582;2023-11-21T13:01:20;85938.94;;;7.28;37.40
80682;BME280;70045;40.200;44.582;2023-11-21T13:03:48;85939.94;;;7.11;37.79
80682;BME280;70045;40.200;44.582;2023-11-21T13:06:15;85940.53;;;7.22;37.98